Main page
METAR-TAF:

METAR-TAF

Airports :

Thule Air Base

Thule, Greenland

latitude: 76-32N, longitude: 068-42W, elevation: 77 m

Current weather observation

The report was made 52 minutes ago, at 23:56 UTC
Wind 7 kt from the East/Southeast
Temperature -34°C
Humidity 60%
Pressure 1004 hPa
Visibility 10 km or more
Clear sky

METAR: BGTL 152356Z AUTO 12007KT 9999 CLR M34/M39 A2964 RMK AO2 SLP033 T13431389 11311 21354 52006 TSNO CHINO RWY26 $

Time: 20:48 (00:48 UTC)

Forecast

The report was made 6 hours and 40 minutes ago, at 18:08 UTC
Forecast valid from 15 at 18 UTC to 16 at 24 UTC
Wind 9 kt from the East/Southeast, varying between East and South
Visibility: 1610 m
Scattered clouds at a height of 15000 ft

TAF: BGTL 151808Z 1518/1624 12009KT 9999 SCT150 QNH2955INS WND 080V180 TXM32/1521Z TNM35/1518Z LAST NO AMDS AFT 1518 NEXT 1610

Weather observations and forecasts of more than 4000 airports (METAR and TAF reports).

The available stations are represented by yellow and red dots on the map.

Hover mouse over dot to see the name of the station.

Then click to see weather observations and forecasts.

To change the map : click on the green buttons with a black cross to zoom in, on the green button with a dash to zoom out, or on the green arrows for adjacent maps.


METAR-TAF: